createdAt,value
2022-09-28T00:01:52.843Z,16.13
2022-09-28T00:04:20.354Z,13.68
2022-09-28T00:06:47.573Z,15.57
2022-09-28T00:09:14.981Z,12.18
2022-09-28T00:11:43.473Z,12.75
2022-09-28T00:14:11.380Z,13.27
2022-09-28T00:16:40.532Z,14.60
2022-09-28T00:19:08.251Z,10.88
2022-09-28T00:21:37.078Z,14.25
2022-09-28T00:24:20.538Z,12.13
2022-09-28T00:26:54.405Z,11.27
2022-09-28T00:29:27.298Z,15.50
2022-09-28T00:31:59.866Z,11.05
2022-09-28T00:34:27.923Z,13.65
2022-09-28T00:36:54.979Z,15.30
2022-09-28T00:39:22.054Z,13.77
2022-09-28T00:41:49.524Z,22.23
2022-09-28T00:44:32.033Z,12.88
2022-09-28T00:47:04.430Z,12.95
2022-09-28T00:49:34.965Z,11.27
2022-09-28T00:52:03.539Z,12.18
2022-09-28T00:54:30.796Z,16.02
2022-09-28T00:56:58.357Z,11.95
2022-09-28T00:59:25.590Z,13.73
2022-09-28T01:01:54.384Z,10.88
2022-09-28T01:04:25.965Z,12.82
2022-09-28T01:06:57.878Z,11.85
2022-09-28T01:09:26.776Z,10.07
2022-09-28T01:11:55.284Z,11.57
2022-09-28T01:14:25.558Z,10.82
2022-09-28T01:17:12.260Z,11.60
2022-09-28T01:19:48.858Z,10.70
2022-09-28T01:22:27.488Z,13.98
2022-09-28T01:25:00.886Z,11.20
2022-09-28T01:27:36.038Z,10.38
2022-09-28T01:30:07.756Z,9.32
2022-09-28T01:32:44.042Z,11.65
2022-09-28T01:35:17.405Z,10.70
2022-09-28T01:37:52.084Z,8.50
2022-09-28T01:40:20.892Z,9.20
2022-09-28T01:42:50.575Z,9.07
2022-09-28T01:45:21.336Z,9.93
2022-09-28T01:47:49.957Z,10.60
2022-09-28T01:50:20.179Z,11.75
2022-09-28T01:52:50.295Z,10.63
2022-09-28T01:55:37.690Z,10.57
2022-09-28T01:58:18.423Z,8.13
2022-09-28T02:00:48.194Z,10.35
2022-09-28T02:03:21.423Z,8.95
2022-09-28T02:06:07.250Z,13.68
2022-09-28T02:08:36.970Z,8.35
2022-09-28T02:11:06.662Z,7.47
2022-09-28T02:13:35.380Z,9.77
2022-09-28T02:16:09.772Z,10.48
2022-09-28T02:18:37.372Z,9.20
2022-09-28T02:21:15.390Z,9.15
2022-09-28T02:23:45.232Z,11.55
2022-09-28T02:26:14.799Z,11.63
2022-09-28T02:28:45.010Z,8.23
2022-09-28T02:31:12.176Z,9.63
2022-09-28T02:33:40.639Z,10.57
2022-09-28T02:36:08.148Z,7.07
2022-09-28T02:41:22.476Z,8.82
2022-09-28T02:44:05.862Z,8.57
2022-09-28T02:46:50.602Z,7.05
2022-09-28T02:49:25.911Z,8.38
2022-09-28T02:52:39.654Z,8.95
2022-09-28T02:55:06.925Z,8.40
2022-09-28T02:57:42.871Z,7.55
2022-09-28T03:00:13.400Z,7.65
2022-09-28T03:02:46.942Z,6.57
2022-09-28T03:05:23.411Z,6.28
2022-09-28T03:08:05.655Z,7.28
2022-09-28T03:10:39.949Z,9.90
2022-09-28T03:13:08.189Z,4.95
2022-09-28T03:15:37.060Z,5.63
2022-09-28T03:18:04.195Z,7.85
2022-09-28T03:20:33.723Z,5.47
2022-09-28T03:25:49.245Z,7.63
2022-09-28T03:28:17.184Z,5.32
2022-09-28T03:30:44.314Z,5.25
2022-09-28T03:33:11.655Z,5.70
2022-09-28T03:35:42.321Z,4.32
2022-09-28T03:38:10.372Z,4.80
2022-09-28T03:40:38.878Z,5.65
2022-09-28T03:43:06.821Z,8.27
2022-09-28T03:45:34.080Z,4.68
2022-09-28T03:48:01.568Z,5.45
2022-09-28T03:50:31.002Z,6.80
2022-09-28T03:53:02.193Z,3.78
2022-09-28T03:55:29.317Z,4.80
2022-09-28T03:57:56.634Z,3.60
2022-09-28T04:00:24.346Z,5.00
2022-09-28T04:02:52.078Z,6.40
2022-09-28T04:05:19.200Z,5.75
2022-09-28T04:07:48.022Z,4.65
2022-09-28T04:10:15.233Z,2.35
2022-09-28T04:12:42.858Z,2.88
2022-09-28T04:15:10.291Z,4.07
2022-09-28T04:17:40.208Z,3.42
2022-09-28T04:20:12.669Z,3.72
2022-09-28T04:22:44.547Z,3.50
2022-09-28T04:25:11.891Z,4.28
2022-09-28T04:27:57.554Z,2.45
2022-09-28T04:30:24.931Z,6.28
2022-09-28T04:32:53.202Z,4.70
2022-09-28T04:35:20.053Z,4.93
2022-09-28T04:37:47.694Z,3.72
2022-09-28T04:40:15.018Z,4.03
2022-09-28T04:42:43.438Z,5.45
2022-09-28T04:45:11.076Z,4.72
2022-09-28T04:47:42.964Z,8.57
2022-09-28T04:50:22.834Z,3.92
2022-09-28T04:53:10.483Z,9.80
2022-09-28T04:55:37.740Z,10.55
2022-09-28T04:58:05.150Z,6.95
2022-09-28T05:00:34.799Z,7.80
2022-09-28T05:03:11.666Z,9.75
2022-09-28T05:05:57.516Z,10.70
2022-09-28T05:08:41.707Z,9.85
2022-09-28T05:11:10.847Z,26.52
2022-09-28T05:13:45.118Z,28.83
2022-09-28T05:16:15.911Z,37.72
2022-09-28T05:21:30.765Z,22.58
2022-09-28T05:23:58.389Z,18.00
2022-09-28T05:26:26.091Z,16.00
2022-09-28T05:28:53.257Z,11.27
2022-09-28T05:31:23.381Z,12.07
2022-09-28T05:34:19.431Z,14.60
2022-09-28T05:36:46.717Z,4.15
2022-09-28T05:39:14.106Z,4.38
2022-09-28T05:41:41.387Z,3.72
2022-09-28T05:44:08.737Z,2.35
2022-09-28T05:46:39.286Z,7.28
2022-09-28T05:49:06.403Z,18.48
2022-09-28T05:51:33.488Z,19.35
2022-09-28T05:54:05.694Z,22.20
2022-09-28T05:56:34.263Z,22.95
2022-09-28T06:01:33.683Z,10.98
2022-09-28T06:04:02.184Z,9.25
2022-09-28T06:06:32.429Z,13.55
2022-09-28T06:08:59.716Z,11.02
2022-09-28T06:11:38.072Z,9.48
2022-09-28T06:14:13.711Z,6.70
2022-09-28T06:16:43.924Z,7.72
2022-09-28T06:19:12.417Z,7.22
2022-09-28T06:22:14.982Z,8.68
2022-09-28T06:24:47.933Z,30.45
2022-09-28T06:27:15.071Z,6.80
2022-09-28T06:29:42.948Z,11.07
2022-09-28T06:32:12.276Z,5.70
2022-09-28T06:34:39.683Z,7.80
2022-09-28T06:37:07.058Z,24.67
2022-09-28T06:39:34.736Z,7.28
2022-09-28T06:42:03.249Z,4.45
2022-09-28T06:44:50.358Z,2.97
2022-09-28T06:47:35.930Z,3.33
2022-09-28T06:50:17.384Z,4.50
2022-09-28T06:53:01.123Z,3.70
2022-09-28T06:55:50.631Z,5.57
2022-09-28T06:58:20.195Z,4.07
2022-09-28T07:00:51.289Z,5.97
2022-09-28T07:03:20.752Z,5.53
2022-09-28T07:06:11.863Z,7.60
2022-09-28T07:09:15.014Z,6.60
2022-09-28T07:12:13.538Z,6.22
2022-09-28T07:14:57.175Z,6.57
2022-09-28T07:17:26.590Z,5.22
2022-09-28T07:19:59.160Z,5.00
2022-09-28T07:22:40.439Z,3.95
2022-09-28T07:25:14.155Z,6.20
2022-09-28T07:27:47.884Z,4.05
2022-09-28T07:30:18.799Z,4.53
2022-09-28T07:33:08.065Z,4.15
2022-09-28T07:35:55.455Z,5.55
2022-09-28T07:38:28.661Z,3.90
2022-09-28T07:41:11.981Z,3.83
2022-09-28T07:43:44.165Z,4.25
2022-09-28T07:46:12.350Z,4.53
2022-09-28T07:48:45.921Z,3.50
2022-09-28T07:51:21.180Z,1.75
2022-09-28T07:54:16.906Z,3.75
2022-09-28T07:56:55.875Z,2.78
2022-09-28T07:59:33.775Z,5.38
2022-09-28T08:02:04.056Z,4.03
2022-09-28T08:04:30.960Z,4.13
2022-09-28T08:06:59.654Z,2.33
2022-09-28T08:09:28.931Z,1.95
2022-09-28T08:12:25.315Z,1.30
2022-09-28T08:15:01.547Z,4.15
2022-09-28T08:17:28.782Z,2.40
2022-09-28T08:20:17.428Z,1.70
2022-09-28T08:22:44.603Z,2.45
2022-09-28T08:25:12.440Z,1.23
2022-09-28T08:27:39.533Z,1.13
2022-09-28T08:30:07.066Z,2.50
2022-09-28T08:33:07.466Z,2.22
2022-09-28T08:35:43.529Z,3.85
2022-09-28T08:38:26.883Z,1.45
2022-09-28T08:41:39.253Z,3.05
2022-09-28T08:44:57.903Z,4.35
2022-09-28T08:48:30.328Z,2.60
2022-09-28T08:51:32.944Z,2.22
2022-09-28T08:55:01.601Z,2.63
2022-09-28T08:58:14.306Z,0.90
2022-09-28T09:00:50.626Z,1.65
2022-09-28T09:03:23.704Z,1.42
2022-09-28T09:07:04.733Z,2.83
2022-09-28T09:09:58.724Z,0.88
2022-09-28T09:12:26.178Z,0.80
2022-09-28T09:15:04.279Z,1.52
2022-09-28T09:18:08.781Z,1.52
2022-09-28T09:21:19.561Z,0.73
2022-09-28T09:23:55.560Z,1.65
2022-09-28T09:26:39.095Z,1.13
2022-09-28T09:29:09.263Z,3.08
2022-09-28T09:34:58.997Z,1.48
2022-09-28T09:38:24.042Z,0.73
2022-09-28T09:41:09.339Z,1.13
2022-09-28T09:44:32.162Z,1.02
2022-09-28T09:47:32.192Z,1.58
2022-09-28T09:50:30.149Z,1.38
2022-09-28T09:53:06.835Z,0.68
2022-09-28T09:58:26.392Z,3.25
2022-09-28T10:01:16.073Z,2.15
2022-09-28T10:04:39.042Z,1.73
2022-09-28T10:07:23.307Z,2.08
2022-09-28T10:09:52.519Z,0.43
2022-09-28T10:12:40.315Z,1.25
2022-09-28T10:15:08.291Z,0.50
2022-09-28T10:17:47.130Z,1.77
2022-09-28T10:20:35.387Z,0.88
2022-09-28T10:23:29.900Z,1.23
2022-09-28T10:26:05.835Z,0.65
2022-09-28T10:28:55.295Z,0.85
2022-09-28T10:31:41.891Z,1.85
2022-09-28T10:34:29.504Z,1.52
2022-09-28T10:37:03.383Z,1.20
2022-09-28T10:39:54.877Z,2.78
2022-09-28T10:42:33.475Z,1.10
2022-09-28T10:45:20.772Z,2.08
2022-09-28T10:47:48.119Z,2.08
2022-09-28T10:50:27.411Z,0.55
2022-09-28T10:53:31.256Z,1.00
2022-09-28T10:56:18.789Z,1.40
2022-09-28T10:58:47.367Z,3.47
2022-09-28T11:01:31.242Z,3.72
2022-09-28T11:04:04.685Z,0.95
2022-09-28T11:06:36.880Z,1.13
2022-09-28T11:09:08.252Z,1.40
2022-09-28T11:11:42.831Z,1.83
2022-09-28T11:14:41.894Z,0.88
2022-09-28T11:17:16.334Z,1.30
2022-09-28T11:19:43.701Z,1.30
2022-09-28T11:22:30.046Z,0.65
2022-09-28T11:25:16.367Z,1.95
2022-09-28T11:28:04.715Z,0.75
2022-09-28T11:30:49.469Z,0.50
2022-09-28T11:33:38.807Z,1.50
2022-09-28T11:36:14.121Z,0.88
2022-09-28T11:38:41.447Z,1.98
2022-09-28T11:41:50.708Z,0.77
2022-09-28T11:44:33.345Z,1.92
2022-09-28T11:47:33.389Z,1.35
2022-09-28T11:50:00.471Z,1.73
2022-09-28T11:52:27.583Z,0.80
2022-09-28T11:55:01.148Z,2.42
2022-09-28T11:57:34.558Z,0.60
2022-09-28T12:00:10.525Z,1.80
2022-09-28T12:03:19.659Z,1.30
2022-09-28T12:06:07.855Z,0.88
2022-09-28T12:08:40.255Z,1.83
2022-09-28T12:11:43.294Z,3.17
2022-09-28T12:14:27.903Z,1.85
2022-09-28T12:17:07.341Z,1.13
2022-09-28T12:20:13.755Z,2.28
2022-09-28T12:23:05.587Z,1.55
2022-09-28T12:25:41.327Z,2.20
2022-09-28T12:28:39.327Z,1.83
2022-09-28T12:31:34.111Z,0.88
2022-09-28T12:34:02.150Z,4.25
2022-09-28T12:36:32.671Z,1.38
2022-09-28T12:39:21.744Z,2.35
2022-09-28T12:41:52.670Z,2.05
2022-09-28T12:44:47.062Z,4.65
2022-09-28T12:47:38.793Z,3.63
2022-09-28T12:50:45.572Z,4.32
2022-09-28T12:53:49.951Z,2.08
2022-09-28T12:56:42.171Z,7.13
2022-09-28T12:59:41.236Z,2.53
2022-09-28T13:02:38.632Z,1.10
2022-09-28T13:05:05.732Z,2.33
2022-09-28T13:07:50.578Z,1.15
2022-09-28T13:10:33.237Z,0.85
2022-09-28T13:13:00.354Z,1.95
2022-09-28T13:15:35.119Z,2.13
2022-09-28T13:18:47.083Z,1.67
2022-09-28T13:21:22.011Z,1.90
2022-09-28T13:23:57.731Z,0.60
2022-09-28T13:26:37.084Z,1.05
2022-09-28T13:29:15.654Z,1.13
2022-09-28T13:32:03.358Z,1.02
2022-09-28T13:34:33.427Z,1.42
2022-09-28T13:37:18.958Z,1.00
2022-09-28T13:39:46.828Z,1.75
2022-09-28T13:42:29.195Z,2.53
2022-09-28T13:45:37.919Z,0.50
2022-09-28T13:48:20.471Z,0.50
2022-09-28T13:51:29.207Z,0.98
2022-09-28T13:54:29.116Z,0.65
2022-09-28T13:57:32.816Z,1.55
2022-09-28T14:00:11.945Z,0.95
2022-09-28T14:02:41.952Z,1.77
2022-09-28T14:05:25.013Z,1.77
2022-09-28T14:08:20.895Z,0.93
2022-09-28T14:10:51.949Z,2.38
2022-09-28T14:13:40.742Z,1.08
2022-09-28T14:16:20.973Z,6.13
2022-09-28T14:18:53.558Z,3.20
2022-09-28T14:21:50.230Z,3.78
2022-09-28T14:24:33.672Z,3.35
2022-09-28T14:27:27.446Z,4.00
2022-09-28T14:30:06.106Z,5.25
2022-09-28T14:32:37.123Z,2.97
2022-09-28T14:35:06.066Z,3.42
2022-09-28T14:37:57.158Z,3.75
2022-09-28T14:40:49.967Z,6.32
2022-09-28T14:43:35.775Z,10.05
2022-09-28T14:46:10.857Z,6.93
2022-09-28T14:49:13.631Z,3.28
2022-09-28T14:51:40.879Z,5.85
2022-09-28T14:54:10.712Z,2.25
2022-09-28T14:57:04.173Z,4.25
2022-09-28T14:59:35.845Z,2.53
2022-09-28T15:02:12.342Z,3.53
2022-09-28T15:05:08.531Z,2.65
2022-09-28T15:07:51.573Z,4.47
2022-09-28T15:10:28.303Z,3.83
2022-09-28T15:12:57.031Z,3.40
2022-09-28T15:15:46.895Z,4.75
2022-09-28T15:18:14.113Z,6.25
2022-09-28T15:20:45.159Z,3.90
2022-09-28T15:23:26.344Z,4.45
2022-09-28T15:25:54.784Z,1.75
2022-09-28T15:28:23.705Z,4.72
2022-09-28T15:30:51.932Z,5.07
2022-09-28T15:33:46.320Z,3.55
2022-09-28T15:36:24.595Z,3.67
2022-09-28T15:38:54.504Z,3.33
2022-09-28T15:41:24.822Z,8.70
2022-09-28T15:44:12.361Z,5.25
2022-09-28T15:46:52.175Z,4.93
2022-09-28T15:49:38.791Z,6.88
2022-09-28T15:52:06.461Z,5.80
2022-09-28T15:54:41.537Z,3.72
2022-09-28T15:57:38.459Z,3.50
2022-09-28T16:00:07.221Z,4.40
2022-09-28T16:02:39.147Z,3.60
2022-09-28T16:05:26.422Z,1.98
2022-09-28T16:07:56.273Z,1.73
2022-09-28T16:10:33.667Z,4.60
2022-09-28T16:13:09.251Z,2.75
2022-09-28T16:15:38.048Z,6.10
2022-09-28T16:18:07.537Z,5.53
2022-09-28T16:20:39.628Z,7.28
2022-09-28T16:23:22.934Z,9.43
2022-09-28T16:25:51.828Z,12.43
2022-09-28T16:28:34.740Z,10.25
2022-09-28T16:31:05.584Z,3.33
2022-09-28T16:33:45.898Z,4.20
2022-09-28T16:36:17.012Z,4.55
2022-09-28T16:38:44.894Z,5.25
2022-09-28T16:41:13.112Z,2.83
2022-09-28T16:43:40.448Z,4.00
2022-09-28T16:46:17.371Z,4.35
2022-09-28T16:48:51.379Z,5.20
2022-09-28T16:51:19.062Z,6.50
2022-09-28T16:54:06.129Z,4.90
2022-09-28T16:56:36.904Z,4.57
2022-09-28T16:59:04.676Z,4.90
2022-09-28T17:01:32.100Z,13.82
2022-09-28T17:03:59.443Z,14.05
2022-09-28T17:06:30.079Z,13.23
2022-09-28T17:08:58.344Z,4.30
2022-09-28T17:11:25.632Z,4.50
2022-09-28T17:13:56.804Z,5.10
2022-09-28T17:16:43.580Z,6.38
2022-09-28T17:19:26.647Z,21.10
2022-09-28T17:21:54.017Z,164.82
2022-09-28T17:24:21.715Z,185.75
2022-09-28T17:26:50.464Z,105.00
2022-09-28T17:29:18.459Z,43.42
2022-09-28T17:31:46.401Z,22.98
2022-09-28T17:34:15.202Z,17.48
2022-09-28T17:36:43.554Z,15.30
2022-09-28T17:39:14.971Z,13.40
2022-09-28T17:41:42.181Z,12.55
2022-09-28T17:44:09.334Z,12.13
2022-09-28T17:46:41.023Z,11.82
2022-09-28T17:49:11.038Z,10.65
2022-09-28T17:51:38.721Z,11.32
2022-09-28T17:54:06.779Z,12.00
2022-09-28T17:56:34.272Z,13.07
2022-09-28T17:59:06.131Z,21.70
2022-09-28T18:01:39.605Z,39.83
2022-09-28T18:04:08.996Z,29.55
2022-09-28T18:06:39.519Z,22.20
2022-09-28T18:09:08.719Z,12.70
2022-09-28T18:11:42.371Z,12.98
2022-09-28T18:14:11.348Z,9.50
2022-09-28T18:16:38.726Z,7.32
2022-09-28T18:19:08.725Z,9.50
2022-09-28T18:21:35.996Z,12.02
2022-09-28T18:24:03.279Z,8.55
2022-09-28T18:26:30.496Z,8.35
2022-09-28T18:28:57.771Z,7.50
2022-09-28T18:31:29.264Z,10.50
2022-09-28T18:34:03.039Z,9.93
2022-09-28T18:36:31.306Z,9.50
2022-09-28T18:39:00.874Z,11.07
2022-09-28T18:41:28.751Z,11.88
2022-09-28T18:44:00.583Z,12.70
2022-09-28T18:46:28.395Z,9.63
2022-09-28T18:48:56.002Z,6.15
2022-09-28T18:51:23.158Z,8.18
2022-09-28T18:53:50.418Z,7.60
2022-09-28T18:56:18.481Z,7.88
2022-09-28T18:58:46.747Z,10.68
2022-09-28T19:01:31.714Z,10.57
2022-09-28T19:04:00.594Z,8.30
2022-09-28T19:06:29.936Z,6.63
2022-09-28T19:08:57.278Z,6.18
2022-09-28T19:11:24.920Z,6.65
2022-09-28T19:13:53.648Z,6.10
2022-09-28T19:16:22.153Z,6.85
2022-09-28T19:18:50.663Z,7.65
2022-09-28T19:21:17.777Z,7.90
2022-09-28T19:23:49.317Z,6.93
2022-09-28T19:26:18.683Z,9.02
2022-09-28T19:28:45.829Z,9.80
2022-09-28T19:31:13.339Z,9.52
2022-09-28T19:33:40.988Z,10.10
2022-09-28T19:36:09.795Z,9.25
2022-09-28T19:38:37.760Z,9.43
2022-09-28T19:41:35.884Z,11.75
2022-09-28T19:44:08.325Z,7.38
2022-09-28T19:46:35.990Z,12.82
2022-09-28T19:49:22.209Z,46.08
2022-09-28T19:54:38.073Z,6.85
2022-09-28T19:57:07.758Z,8.95
2022-09-28T19:59:35.762Z,7.63
2022-09-28T20:02:03.334Z,11.93
2022-09-28T20:04:30.623Z,10.13
2022-09-28T20:06:57.810Z,8.57
2022-09-28T20:09:24.978Z,10.20
2022-09-28T20:11:54.985Z,11.98
2022-09-28T20:14:24.528Z,10.38
2022-09-28T20:16:53.098Z,8.15
2022-09-28T20:19:21.878Z,7.22
2022-09-28T20:21:49.553Z,10.15
2022-09-28T20:24:17.161Z,9.52
2022-09-28T20:26:46.105Z,11.57
2022-09-28T20:29:13.636Z,9.48
2022-09-28T20:31:41.683Z,10.02
2022-09-28T20:34:09.683Z,9.43
2022-09-28T20:36:36.819Z,9.88
2022-09-28T20:39:04.297Z,11.02
2022-09-28T20:41:36.457Z,8.75
2022-09-28T20:44:05.893Z,10.07
2022-09-28T20:46:34.399Z,11.90
2022-09-28T20:49:01.530Z,10.77
2022-09-28T20:51:28.762Z,10.77
2022-09-28T20:53:57.106Z,10.20
2022-09-28T20:56:37.778Z,10.82
2022-09-28T20:59:08.923Z,11.35
2022-09-28T21:01:36.081Z,11.35
2022-09-28T21:04:04.910Z,10.40
2022-09-28T21:06:36.059Z,9.77
2022-09-28T21:09:03.690Z,11.00
2022-09-28T21:11:30.872Z,10.25
2022-09-28T21:14:01.842Z,12.60
2022-09-28T21:16:30.123Z,10.88
2022-09-28T21:18:57.372Z,12.00
2022-09-28T21:21:24.969Z,15.73
2022-09-28T21:23:55.487Z,11.80
2022-09-28T21:26:24.731Z,11.40
2022-09-28T21:28:59.237Z,12.75
2022-09-28T21:31:29.365Z,12.00
2022-09-28T21:33:57.056Z,10.07
2022-09-28T21:36:24.362Z,10.88
2022-09-28T21:38:51.446Z,12.38
2022-09-28T21:41:18.711Z,13.52
2022-09-28T21:43:46.203Z,12.80
2022-09-28T21:46:13.453Z,9.95
2022-09-28T21:48:40.982Z,10.68
2022-09-28T21:51:09.335Z,12.25
2022-09-28T21:53:37.208Z,12.02
2022-09-28T21:56:05.019Z,15.75
2022-09-28T21:58:33.684Z,11.55
2022-09-28T22:01:01.249Z,10.98
2022-09-28T22:03:28.851Z,12.90
2022-09-28T22:05:55.918Z,12.13
2022-09-28T22:08:23.620Z,12.35
2022-09-28T22:11:08.911Z,11.57
2022-09-28T22:13:37.303Z,12.90
2022-09-28T22:16:04.452Z,12.23
2022-09-28T22:18:32.675Z,13.73
2022-09-28T22:21:00.582Z,11.65
2022-09-28T22:23:28.356Z,12.27
2022-09-28T22:25:59.672Z,12.02
2022-09-28T22:28:26.831Z,12.18
2022-09-28T22:30:54.210Z,13.38
2022-09-28T22:33:21.566Z,27.83
2022-09-28T22:35:51.093Z,11.25
2022-09-28T22:38:19.272Z,11.88
2022-09-28T22:40:50.398Z,11.80
2022-09-28T22:43:18.635Z,15.02
2022-09-28T22:45:45.782Z,13.63
2022-09-28T22:48:13.180Z,13.30
2022-09-28T22:50:40.431Z,13.50
2022-09-28T22:53:08.143Z,12.45
2022-09-28T22:55:35.310Z,12.63
2022-09-28T22:58:02.800Z,13.70
2022-09-28T23:00:30.473Z,11.68
2022-09-28T23:02:57.776Z,12.13
2022-09-28T23:05:24.919Z,12.00
2022-09-28T23:07:52.178Z,11.70
2022-09-28T23:10:18.931Z,13.82
2022-09-28T23:12:46.038Z,12.80
2022-09-28T23:15:13.842Z,12.98
2022-09-28T23:17:41.108Z,20.40
2022-09-28T23:20:12.619Z,12.80
2022-09-28T23:22:39.711Z,12.25
2022-09-28T23:25:07.245Z,12.93
2022-09-28T23:27:34.498Z,19.65
2022-09-28T23:30:01.678Z,12.32
2022-09-28T23:32:31.977Z,14.18
2022-09-28T23:34:59.251Z,13.40
2022-09-28T23:37:26.377Z,12.02
2022-09-28T23:39:53.710Z,12.73
2022-09-28T23:42:23.704Z,14.48
2022-09-28T23:44:50.787Z,11.20
2022-09-28T23:47:17.844Z,11.70
2022-09-28T23:49:44.949Z,13.23
2022-09-28T23:52:12.048Z,10.70
2022-09-28T23:54:39.637Z,11.07
2022-09-28T23:57:06.725Z,12.13
2022-09-28T23:59:33.788Z,13.30
